Bugt, China
Current Conditions -  °F | °C
As of 12:00 AM on Sunday 26 Oct 2014 (Local Time) from ZYTX Reporting Station
Overcast Overcast  
Wind Chill: 13°   Ceiling: 3300
Heat Index: 13°   Visibility: 4mi
Dew Point: 10°   Wind: 2mph
Humidity: 82%   Direction: 300°WNW
Pressure: 29.88"   Gusts: NA
Location:  42.33°N, 120.7°E
Report Text: ZYTX 251600Z 30001MPS 6000 OVC033 13/10 Q1012 NOSIG
Loading
Personal Weather Stations






























Interactive Weather Map
Tropical Storm Tracking
New forecast layout! Learn more

10-Day Weather Forecast

Advertisements
Track Severe Weather on mobile